Latest Weather Observations for Newdegate

IDW60801

Issued at 10:02 am WST Saturday 30 May 2015 (issued every 30 minutes, with the page automatically refreshed every 10 minutes)

About weather observations | Map of weather stations | Latest weather observations for WA | Other Formats
Station Details ID: 010692 Name: NEWDEGATE RESEARCH STATION Lat: -33.11 Lon: 118.84 Height: 320.0 m
Data from the previous 72 hours. | See also: Recent months at Newdegate
Date/Time
WST
Temp
°C
App
Temp
°C
Dew
Point
Rel
Hum
%
Delta-T
°C
Wind Press
QNH
hPa
Press
MSL
hPa
Rain
since 9 am
mm
Dir
 
Spd
km/h
Gust
km/h
Spd
kts
Gust
kts
30/10:00am 12.8 10.6 5.5 61 3.4 N 6 9 3 5 1027.9 1027.7 0.0
30/09:30am 11.2 9.6 6.3 72 2.3 NNE 4 6 2 3 1028.0 1027.8 0.0
30/09:00am 8.5 7.0 6.6 88 0.9 NNE 4 6 2 3 1028.0 1027.8 0.2
30/08:30am 7.2 6.3 6.0 92 0.5 CALM 0 0 0 0 1027.9 1027.7 0.2
30/08:00am 5.1 3.8 3.9 92 0.5 CALM 0 4 0 2 1027.8 1027.6 0.2
30/07:30am 1.0 -1.0 -0.3 91 0.5 CALM 0 0 0 0 1027.8 1027.6 0.2
30/07:00am -0.2 -2.4 -1.6 90 0.5 CALM 0 0 0 0 1027.6 1027.4 0.2
30/06:30am 0.3 -1.8 -1.0 91 0.5 CALM 0 0 0 0 1027.5 1027.3 0.2
30/06:00am 0.0 -2.2 -1.4 90 0.5 CALM 0 0 0 0 1027.3 1027.1 0.2
30/05:30am 0.2 -2.0 -1.2 90 0.5 CALM 0 0 0 0 1027.2 1027.0 0.2
30/05:00am 0.4 -1.7 -1.0 90 0.5 CALM 0 0 0 0 1027.0 1026.8 0.2
30/04:30am 0.2 -2.0 -1.2 90 0.5 CALM 0 0 0 0 1027.1 1026.9 0.2
30/04:00am 0.6 -1.9 -0.8 90 0.5 S 2 2 1 1 1027.1 1026.9 0.2
30/03:30am 0.5 -2.0 -1.1 89 0.6 SSE 2 4 1 2 1027.0 1026.8 0.2
30/03:00am 2.4 -0.2 1.1 91 0.5 SSE 4 4 2 2 1027.0 1026.8 0.2
30/02:30am 1.0 -1.1 -0.8 88 0.7 CALM 0 0 0 0 1027.0 1026.8 0.2
30/02:00am 2.6 0.0 1.0 89 0.6 SSW 4 6 2 3 1027.1 1026.9 0.2
30/01:30am 2.7 0.5 0.8 87 0.7 SSE 2 4 1 2 1026.9 1026.7 0.2
30/01:00am 2.8 -0.4 0.9 87 0.7 SSE 7 7 4 4 1026.9 1026.7 0.2
30/12:30am 4.1 2.1 2.1 87 0.8 SSE 2 4 1 2 1026.9 1026.7 0.2
30/12:00am 4.2 1.8 2.1 86 0.8 SSE 4 6 2 3 1027.1 1026.9 0.2
 
Date/Time
WST
Temp
°C
App
Temp
°C
Dew
Point
Rel
Hum
%
Delta-T
°C
Wind Press
QNH
hPa
Press
MSL
hPa
Rain
since 9 am
mm
Dir
 
Spd
km/h
Gust
km/h
Spd
kts
Gust
kts
29/11:30pm 2.9 -0.4 0.3 83 1.0 SSE 7 9 4 5 1027.2 1027.0 0.2
29/11:00pm 5.0 2.6 2.0 81 1.2 SE 4 6 2 3 1027.4 1027.2 0.2
29/10:30pm 5.0 2.9 1.8 80 1.3 SE 2 6 1 3 1027.4 1027.2 0.2
29/10:00pm 5.4 2.9 1.7 77 1.5 SSE 4 6 2 3 1027.5 1027.3 0.2
29/09:30pm 4.6 1.4 0.7 76 1.5 SSE 7 9 4 5 1027.5 1027.3 0.2
29/09:00pm 5.7 1.8 1.2 73 1.8 S 11 11 6 6 1027.6 1027.4 0.2
29/08:30pm 7.0 3.0 2.7 74 1.8 S 13 13 7 7 1027.6 1027.4 0.2
29/08:00pm 6.5 2.8 2.6 76 1.6 S 11 13 6 7 1027.2 1027.0 0.2
29/07:30pm 5.6 2.1 1.5 75 1.7 S 9 11 5 6 1027.0 1026.8 0.2
29/07:00pm 7.4 3.4 2.9 73 1.9 S 13 13 7 7 1026.7 1026.5 0.2
29/06:30pm 6.3 2.9 1.6 72 1.9 S 9 9 5 5 1026.2 1026.0 0.2
29/06:00pm 7.3 3.9 1.6 67 2.3 S 9 13 5 7 1025.9 1025.6 0.2
29/05:30pm 9.1 5.8 2.4 63 2.9 S 9 9 5 5 1025.6 1025.3 0.2
29/05:00pm 12.5 9.3 3.2 53 4.2 SSE 9 9 5 5 1025.2 1025.0 0.2
29/04:30pm 14.9 12.7 3.4 46 5.3 SSE 4 9 2 5 1024.9 1024.7 0.2
29/04:00pm 15.6 12.8 3.4 44 5.6 SSE 7 13 4 7 1024.7 1024.5 0.2
29/03:30pm 15.9 13.1 3.4 43 5.8 S 7 13 4 7 1024.7 1024.5 0.2
29/03:00pm 16.4 13.9 3.8 43 5.9 WSW 6 9 3 5 1024.7 1024.5 0.2
29/02:30pm 16.0 14.0 4.4 46 5.5 ESE 4 9 2 5 1024.5 1024.3 0.2
29/02:00pm 14.8 11.5 4.5 50 4.8 S 11 17 6 9 1024.6 1024.4 0.2
29/01:30pm 15.8 13.1 3.9 45 5.6 W 7 11 4 6 1024.8 1024.6 0.2
29/01:00pm 16.4 14.1 4.8 46 5.6 W 6 11 3 6 1025.1 1024.9 0.2
29/12:30pm 14.9 11.9 4.0 48 5.1 NNE 9 19 5 10 1025.4 1025.2 0.2
29/12:00pm 15.5 13.1 5.1 50 5.0 NE 7 13 4 7 1025.8 1025.5 0.2
29/11:30am 15.1 12.4 5.6 53 4.6 NNE 9 15 5 8 1026.4 1026.2 0.0
29/11:00am 14.6 11.5 5.4 54 4.4 NE 11 17 6 9 1026.9 1026.7 0.0
29/10:30am 13.8 10.5 6.4 61 3.6 NNE 13 19 7 10 1027.3 1027.1 0.0
29/10:00am 12.1 9.9 8.0 76 2.0 NE 9 15 5 8 1027.6 1027.4 0.0
29/09:30am 10.2 7.4 7.1 81 1.5 NE 11 17 6 9 1027.6 1027.4 0.0
29/09:00am 9.5 7.2 7.6 88 0.9 ENE 9 11 5 6 1027.6 1027.4 0.0
29/08:30am 9.1 7.8 7.7 91 0.7 NNE 4 7 2 4 1027.5 1027.3 0.0
29/08:00am 7.2 6.3 6.0 92 0.5 CALM 0 0 0 0 1027.3 1027.1 0.0
29/07:30am 5.2 3.8 3.7 90 0.6 CALM 0 0 0 0 1026.9 1026.7 0.0
29/07:00am 5.6 3.5 4.1 90 0.6 NNE 4 4 2 2 1026.7 1026.5 0.0
29/06:30am 5.9 3.5 4.4 90 0.7 NNE 6 6 3 3 1026.6 1026.4 0.0
29/06:00am 6.3 4.3 4.6 89 0.7 NNE 4 6 2 3 1026.5 1026.3 0.0
29/05:30am 4.5 1.8 2.7 88 0.7 NNE 6 6 3 3 1026.4 1026.2 0.0
29/05:00am 5.9 3.8 3.9 87 0.9 NNE 4 4 2 2 1026.3 1026.1 0.0
29/04:30am 6.8 4.3 4.8 87 0.9 NNE 7 9 4 5 1026.2 1026.0 0.0
29/04:00am 7.3 4.9 5.1 86 1.0 NE 7 9 4 5 1026.0 1025.8 0.0
29/03:30am 8.3 5.3 5.9 85 1.1 SSE 11 15 6 8 1025.8 1025.5 0.0
29/03:00am 9.1 5.8 6.5 84 1.2 SSE 13 17 7 9 1025.8 1025.5 0.0
29/02:30am 9.2 7.1 6.5 83 1.3 SE 7 11 4 6 1025.9 1025.6 0.0
29/02:00am 9.4 7.5 6.5 82 1.4 SE 6 9 3 5 1026.0 1025.8 0.0
29/01:30am 9.4 6.9 6.5 82 1.4 SE 9 15 5 8 1025.9 1025.6 0.0
29/01:00am 9.5 6.6 6.6 82 1.4 SE 11 15 6 8 1025.9 1025.6 0.0
29/12:30am 9.5 7.0 6.6 82 1.4 SE 9 15 5 8 1026.1 1025.9 0.0
29/12:00am 9.5 6.6 6.4 81 1.5 SE 11 13 6 7 1026.2 1026.0 0.0
 
Date/Time
WST
Temp
°C
App
Temp
°C
Dew
Point
Rel
Hum
%
Delta-T
°C
Wind Press
QNH
hPa
Press
MSL
hPa
Rain
since 9 am
mm
Dir
 
Spd
km/h
Gust
km/h
Spd
kts
Gust
kts
28/11:30pm 9.7 6.4 6.4 80 1.6 SE 13 17 7 9 1026.2 1026.0 0.0
28/11:00pm 10.0 7.1 6.3 78 1.7 ESE 11 15 6 8 1026.3 1026.1 0.0
28/10:30pm 10.0 7.1 6.5 79 1.7 SSE 11 19 6 10 1026.2 1026.0 0.0
28/10:00pm 10.1 8.4 6.1 76 1.9 SSE 4 9 2 5 1026.4 1026.2 0.0
28/09:30pm 10.3 8.1 6.3 76 1.9 SSE 7 11 4 6 1026.2 1026.0 0.0
28/09:00pm 10.5 7.6 6.3 75 2.0 SE 11 13 6 7 1026.2 1026.0 0.0
28/08:30pm 10.5 8.5 6.3 75 2.0 SE 6 9 3 5 1026.0 1025.8 0.0
28/08:00pm 11.0 8.1 6.4 73 2.2 SE 11 19 6 10 1025.7 1025.4 0.0
28/07:30pm 11.2 8.2 6.1 71 2.4 SE 11 13 6 7 1025.3 1025.1 0.0
28/07:00pm 10.9 9.3 6.5 74 2.1 E 4 7 2 4 1024.9 1024.7 0.0
28/06:30pm 10.6 8.6 6.4 75 2.0 SSE 6 7 3 4 1024.5 1024.3 0.0
28/06:00pm 10.4 8.2 6.2 75 2.0 SE 7 9 4 5 1024.1 1023.9 0.0
28/05:30pm 10.1 7.6 4.9 70 2.4 SSE 7 11 4 6 1023.8 1023.6 0.0
28/05:00pm 11.7 9.5 5.3 65 3.0 SE 6 9 3 5 1023.5 1023.3 0.0
28/04:30pm 13.8 10.5 6.2 60 3.7 SE 13 17 7 9 1023.4 1023.2 0.0
28/04:00pm 14.5 10.8 6.3 58 4.0 ESE 15 20 8 11 1023.2 1022.9 0.0
28/03:30pm 14.7 12.0 5.5 54 4.4 SE 9 15 5 8 1023.1 1022.8 0.0
28/03:00pm 14.9 11.9 6.0 55 4.3 ESE 11 15 6 8 1023.2 1022.9 0.0
28/02:30pm 14.9 11.2 6.5 57 4.1 ESE 15 20 8 11 1023.1 1022.8 0.0
28/02:00pm 14.2 11.4 6.8 61 3.6 SSE 11 22 6 12 1023.0 1022.7 0.0
28/01:30pm 13.1 10.3 6.9 66 3.0 SSE 11 15 6 8 1023.2 1022.9 0.0
28/01:00pm 12.6 9.1 7.1 69 2.7 S 15 20 8 11 1023.4 1023.2 0.0
28/12:30pm 14.5 13.0 6.6 59 3.9 NE 4 9 2 5 1023.6 1023.4 0.0
28/12:00pm 14.5 12.4 6.6 59 3.9 ESE 7 17 4 9 1023.8 1023.6 0.0
28/11:30am 12.7 10.8 6.5 66 3.0 SSW 6 13 3 7 1024.2 1024.0 0.0
28/11:00am 11.0 8.6 6.9 76 2.0 E 9 15 5 8 1024.7 1024.5 0.0
28/10:30am 9.6 7.7 7.5 87 1.0 S 7 9 4 5 1024.7 1024.5 0.0
28/10:00am 9.2 7.0 8.0 92 0.6 SE 9 13 5 7 1024.8 1024.6 0.0
28/09:30am 8.4 5.7 7.2 92 0.6 SSE 11 17 6 9 1024.8 1024.6 0.0
28/09:00am 7.8 4.9 6.6 92 0.6 SE 11 13 6 7 1024.8 1024.6 0.0
28/08:30am 7.7 4.4 6.5 92 0.6 S 13 17 7 9 1024.4 1024.2 0.0
28/08:00am 7.8 4.5 6.4 91 0.6 SSE 13 17 7 9 1024.0 1023.8 0.0
28/07:30am 7.2 5.5 6.0 92 0.6 ENE 4 7 2 4 1023.7 1023.5 0.0
28/07:00am 4.5 1.9 3.2 91 0.5 ENE 6 9 3 5 1023.7 1023.5 0.0
28/06:30am 3.2 0.3 1.6 89 0.6 SSE 6 7 3 4 1023.2 1022.9 0.0
28/06:00am 6.1 2.8 4.6 90 0.7 S 11 15 6 8 1022.8 1022.5 0.0
28/05:30am 6.1 2.4 4.4 89 0.7 SSW 13 13 7 7 1022.6 1022.3 0.0
28/05:00am 6.0 2.6 4.2 88 0.8 SSW 11 15 6 8 1022.4 1022.1 0.0
28/04:30am 4.6 1.3 2.3 85 0.9 SSW 9 13 5 7 1022.3 1022.0 0.0
28/04:00am 5.1 1.8 2.6 84 1.0 SSW 9 11 5 6 1022.0 1021.8 0.0
28/03:30am 6.8 3.8 4.1 83 1.2 SW 9 11 5 6 1021.9 1021.7 0.0
28/03:00am 6.2 3.6 4.2 87 0.9 SW 7 11 4 6 1021.8 1021.6 0.0
28/02:30am 4.2 2.4 1.2 81 1.2 CALM 0 0 0 0 1021.8 1021.6 0.0
28/02:00am 5.6 3.9 2.1 78 1.4 CALM 0 2 0 1 1021.8 1021.6 0.0
28/01:30am 6.1 2.8 2.6 78 1.5 WSW 9 13 5 7 1021.7 1021.5 0.0
28/01:00am 7.0 4.2 3.4 78 1.5 WNW 7 9 4 5 1021.6 1021.4 0.0
28/12:30am 6.6 3.5 3.8 82 1.2 W 9 11 5 6 1021.9 1021.7 0.0
28/12:00am 5.0 2.0 1.7 79 1.3 WSW 7 11 4 6 1022.1 1021.9 0.0
 
Date/Time
WST
Temp
°C
App
Temp
°C
Dew
Point
Rel
Hum
%
Delta-T
°C
Wind Press
QNH
hPa
Press
MSL
hPa
Rain
since 9 am
mm
Dir
 
Spd
km/h
Gust
km/h
Spd
kts
Gust
kts
27/11:30pm 4.7 2.9 1.4 79 1.3 CALM 0 6 0 3 1021.9 1021.7 0.0
27/11:00pm 5.2 2.7 1.7 78 1.4 WNW 4 6 2 3 1021.7 1021.5 0.0
27/10:30pm 6.6 4.3 2.5 75 1.7 W 4 4 2 2 1021.7 1021.5 0.0
27/10:00pm 7.9 5.7 3.6 74 1.9 W 4 6 2 3 1021.9 1021.7 0.0
27/09:30pm 8.3 7.1 4.7 78 1.6 CALM 0 0 0 0 1021.9 1021.7 0.0
27/09:00pm 7.3 6.1 4.4 82 1.3 CALM 0 0 0 0 1021.9 1021.7 0.0
27/08:30pm 6.1 4.7 3.3 82 1.2 CALM 0 0 0 0 1021.9 1021.7 0.0
27/08:00pm 5.6 4.0 2.4 80 1.3 CALM 0 0 0 0 1021.6 1021.4 0.0
27/07:30pm 5.0 2.4 0.8 74 1.7 NW 4 4 2 2 1021.4 1021.2 0.0
27/07:00pm 7.8 5.7 1.9 66 2.5 SW 2 4 1 2 1021.4 1021.2 0.0
27/06:30pm 10.9 7.6 2.2 55 3.8 SSW 9 17 5 9 1021.1 1020.9 0.0
27/06:00pm 10.7 7.9 3.3 60 3.3 SSW 7 9 4 5 1021.0 1020.8 0.0
27/05:30pm 12.3 8.8 3.5 55 4.0 SSW 11 13 6 7 1020.7 1020.5 0.0
27/05:00pm 12.1 9.4 3.6 56 3.8 SSW 7 9 4 5 1020.5 1020.2 0.0
27/04:30pm 13.1 9.9 3.2 51 4.5 SW 9 13 5 7 1020.4 1020.1 0.0
27/04:00pm 13.8 9.7 2.4 46 5.1 SSW 13 20 7 11 1020.4 1020.1 0.0
27/03:30pm 14.1 10.1 2.7 46 5.2 SW 13 19 7 10 1020.3 1020.0 0.0
27/03:00pm 14.5 10.4 2.4 44 5.4 WSW 13 22 7 12 1020.4 1020.1 0.0
27/02:30pm 14.2 9.8 2.8 46 5.2 SW 15 20 8 11 1020.5 1020.2 0.0
27/02:00pm 14.1 9.4 3.0 47 5.0 W 17 24 9 13 1020.6 1020.4 0.0
27/01:30pm 14.2 9.9 3.1 47 5.1 W 15 24 8 13 1020.8 1020.6 0.0
27/01:00pm 14.1 9.0 3.3 48 4.9 SW 19 26 10 14 1021.0 1020.8 0.0
27/12:30pm 13.7 9.3 2.6 47 5.0 W 15 20 8 11 1021.5 1021.3 0.0
27/12:00pm 14.2 10.4 3.7 49 4.8 WSW 13 20 7 11 1021.9 1021.7 0.0
27/11:30am 13.3 9.4 3.4 51 4.5 SW 13 20 7 11 1022.5 1022.2 0.0
27/11:00am 13.3 9.1 3.7 52 4.4 SW 15 22 8 12 1023.0 1022.7 0.0
27/10:30am 12.8 9.3 3.5 53 4.2 SW 11 20 6 11 1023.2 1022.9 0.0

Other Formats:

Comma delimited format used in spreadsheet applications
http://www.bom.gov.au/fwo/IDW60801/IDW60801.94628.axf

JavaScript Object Notation format (JSON) in row-major order
http://www.bom.gov.au/fwo/IDW60801/IDW60801.94628.json